Información del aeropuerto LEBG

Información de pista
Pista 06 Longitud 4393 ft Anchura 98 ft
Elevación 2907 ft Umbral 0 ft Rumbo 56
Pista 24 Longitud 4393 ft Anchura 98 ft
Elevación 2945 ft Umbral 0 ft Rumbo 236
Frecuencias del aeropuerto
Tipo UNIC Nombre UNIC Frecuencia 122.4 MHZ
Radioayudas del aeropuerto
Tipo NDB Nombre Burgos Frecuencia 357 KHZ
Tipo VOR-DME Nombre Burgos Frecuencia 111400 KHZ
Información meteorológica del aeropuerto y NOTAM
ADDS - METARS form results

(1549 UTC 15 August 2020)
Data provider http://aviationweather.gov/metar/data/
 
METAR text: LEBG 151530Z 21013KT 180V250 9999 FEW050 25/03 Q1014
Conditions at: LEBG (BURGOS/VILLAFRIA, ES) observed 1530 UTC 15 August 2020
Temperature: 25.0°C (77°F)
Dewpoint: 3.0°C (37°F) [RH = 24%]
Pressure (altimeter): 29.94 inches Hg (1014.0 mb)
Winds: from the SSW (210 degrees) at 15 MPH (13 knots; 6.7 m/s)
Visibility: 6 or more miles (10+ km)
Ceiling: at least 12,000 feet AGL
Clouds: few clouds at 5000 feet AGL
Weather: no significant weather observed at this time

METAR text: LEBG 151500Z 21016KT 170V250 9999 FEW050 26/02 Q1014
Conditions at: LEBG (BURGOS/VILLAFRIA, ES) observed 1500 UTC 15 August 2020
Temperature: 26.0°C (79°F)
Dewpoint: 2.0°C (36°F) [RH = 21%]
Pressure (altimeter): 29.94 inches Hg (1014.0 mb)
Winds: from the SSW (210 degrees) at 18 MPH (16 knots; 8.2 m/s)
Visibility: 6 or more miles (10+ km)
Ceiling: at least 12,000 feet AGL
Clouds: few clouds at 5000 feet AGL
Weather: no significant weather observed at this time